createdAt,value
2023-03-08T00:01:24.076Z,100278.03
2023-03-08T00:03:56.308Z,100285.56
2023-03-08T00:06:26.171Z,100289.50
2023-03-08T00:08:56.830Z,100293.84
2023-03-08T00:11:25.916Z,100293.94
2023-03-08T00:13:56.554Z,100288.97
2023-03-08T00:16:25.871Z,100293.94
2023-03-08T00:18:54.803Z,100292.25
2023-03-08T00:21:23.735Z,100292.69
2023-03-08T00:23:54.445Z,100268.84
2023-03-08T00:26:23.387Z,100287.25
2023-03-08T00:28:53.122Z,100286.72
2023-03-08T00:31:23.923Z,100291.16
2023-03-08T00:33:55.795Z,100282.91
2023-03-08T00:36:24.822Z,100304.34
2023-03-08T00:38:53.582Z,100290.88
2023-03-08T00:41:22.023Z,100281.75
2023-03-08T00:43:50.661Z,100273.63
2023-03-08T00:46:19.025Z,100258.00
2023-03-08T00:48:48.962Z,100257.03
2023-03-08T00:51:18.949Z,100262.75
2023-03-08T00:53:48.526Z,100260.13
2023-03-08T00:56:17.010Z,100264.22
2023-03-08T00:58:45.376Z,100266.66
2023-03-08T01:01:17.093Z,100267.59
2023-03-08T01:03:48.977Z,100270.66
2023-03-08T01:06:17.559Z,100266.75
2023-03-08T01:08:46.833Z,100284.38
2023-03-08T01:11:20.123Z,100284.50
2023-03-08T01:13:49.549Z,100288.53
2023-03-08T01:16:19.528Z,100283.97
2023-03-08T01:18:50.037Z,100285.78
2023-03-08T01:21:19.135Z,100288.94
2023-03-08T01:23:47.687Z,100282.19
2023-03-08T01:26:17.796Z,100294.66
2023-03-08T01:28:46.347Z,100281.91
2023-03-08T01:31:16.786Z,100277.81
2023-03-08T01:33:46.473Z,100261.84
2023-03-08T01:36:20.458Z,100245.06
2023-03-08T01:38:49.223Z,100251.28
2023-03-08T01:41:21.282Z,100253.50
2023-03-08T01:43:50.488Z,100239.94
2023-03-08T01:46:24.951Z,100199.19
2023-03-08T01:49:12.949Z,100203.38
2023-03-08T01:51:45.967Z,100245.00
2023-03-08T01:54:17.578Z,100242.88
2023-03-08T01:56:48.641Z,100239.56
2023-03-08T01:59:17.496Z,100235.97
2023-03-08T02:01:46.696Z,100235.75
2023-03-08T02:04:15.367Z,100224.56
2023-03-08T02:06:46.947Z,100233.78
2023-03-08T02:09:20.724Z,100224.91
2023-03-08T02:11:50.561Z,100215.91
2023-03-08T02:14:19.024Z,100204.28
2023-03-08T02:16:50.945Z,100219.81
2023-03-08T02:19:26.668Z,100208.88
2023-03-08T02:21:57.451Z,100209.09
2023-03-08T02:24:27.621Z,100196.34
2023-03-08T02:27:01.813Z,100199.22
2023-03-08T02:29:30.293Z,100184.22
2023-03-08T02:31:58.668Z,100181.69
2023-03-08T02:34:28.156Z,100171.09
2023-03-08T02:36:56.602Z,100175.44
2023-03-08T02:39:26.484Z,100179.25
2023-03-08T02:41:56.807Z,100178.53
2023-03-08T02:44:25.476Z,100185.72
2023-03-08T02:46:55.784Z,100173.13
2023-03-08T02:49:24.347Z,100159.06
2023-03-08T02:51:53.562Z,100139.97
2023-03-08T02:54:22.703Z,100139.22
2023-03-08T02:56:52.530Z,100146.44
2023-03-08T02:59:23.564Z,100141.03
2023-03-08T03:01:53.415Z,100138.38
2023-03-08T03:04:22.997Z,100129.19
2023-03-08T03:06:51.778Z,100116.91
2023-03-08T03:09:20.221Z,100130.53
2023-03-08T03:11:48.653Z,100141.81
2023-03-08T03:14:18.567Z,100135.47
2023-03-08T03:16:47.683Z,100130.53
2023-03-08T03:19:16.063Z,100111.97
2023-03-08T03:21:44.456Z,100122.59
2023-03-08T03:24:12.851Z,100118.88
2023-03-08T03:26:47.039Z,100114.22
2023-03-08T03:29:15.536Z,100113.50
2023-03-08T03:31:48.713Z,100119.84
2023-03-08T03:34:18.729Z,100145.94
2023-03-08T03:36:49.193Z,100156.63
2023-03-08T03:39:17.732Z,100172.78
2023-03-08T03:41:47.063Z,100176.53
2023-03-08T03:44:16.138Z,100160.44
2023-03-08T03:46:48.363Z,100164.50
2023-03-08T03:49:20.648Z,100161.66
2023-03-08T03:51:49.170Z,100171.75
2023-03-08T03:54:28.207Z,100158.31
2023-03-08T03:57:00.504Z,100163.38
2023-03-08T03:59:34.116Z,100146.56
2023-03-08T04:02:05.290Z,100148.84
2023-03-08T04:04:38.959Z,100153.28
2023-03-08T04:07:07.734Z,100159.16
2023-03-08T04:09:41.140Z,100166.88
2023-03-08T04:12:14.613Z,100173.09
2023-03-08T04:14:43.047Z,100185.50
2023-03-08T04:17:15.579Z,100186.44
2023-03-08T04:19:51.289Z,100185.75
2023-03-08T04:22:21.170Z,100193.44
2023-03-08T04:25:03.158Z,100194.88
2023-03-08T04:27:41.119Z,100171.06
2023-03-08T04:30:10.721Z,100178.94
2023-03-08T04:32:40.542Z,100160.53
2023-03-08T04:35:10.013Z,100166.66
2023-03-08T04:37:40.945Z,100172.56
2023-03-08T04:40:15.080Z,100184.00
2023-03-08T04:42:55.620Z,100189.88
2023-03-08T04:45:30.397Z,100181.69
2023-03-08T04:48:02.825Z,100201.19
2023-03-08T04:50:32.993Z,100218.03
2023-03-08T04:53:01.482Z,100207.91
2023-03-08T04:55:30.357Z,100210.31
2023-03-08T04:57:59.111Z,100218.16
2023-03-08T05:00:30.274Z,100227.78
2023-03-08T05:03:00.267Z,100241.38
2023-03-08T05:05:30.215Z,100235.00
2023-03-08T05:07:59.964Z,100221.66
2023-03-08T05:10:28.660Z,100223.22
2023-03-08T05:12:57.434Z,100219.00
2023-03-08T05:15:26.246Z,100230.69
2023-03-08T05:17:54.578Z,100238.63
2023-03-08T05:20:23.257Z,100218.03
2023-03-08T05:22:58.927Z,100234.66
2023-03-08T05:25:35.803Z,100241.88
2023-03-08T05:28:04.535Z,100244.28
2023-03-08T05:30:32.923Z,100238.16
2023-03-08T05:33:01.363Z,100228.97
2023-03-08T05:35:29.867Z,100241.97
2023-03-08T05:37:59.769Z,100236.22
2023-03-08T05:40:28.528Z,100238.97
2023-03-08T05:42:58.089Z,100253.06
2023-03-08T05:45:27.977Z,100240.91
2023-03-08T05:47:57.786Z,100252.34
2023-03-08T05:50:26.287Z,100259.56
2023-03-08T05:52:55.330Z,100261.97
2023-03-08T05:55:29.465Z,100258.97
2023-03-08T05:57:59.597Z,100250.78
2023-03-08T06:00:29.058Z,100240.81
2023-03-08T06:03:04.025Z,100230.94
2023-03-08T06:05:35.801Z,100221.91
2023-03-08T06:08:04.633Z,100229.13
2023-03-08T06:10:34.574Z,100238.78
2023-03-08T06:13:03.625Z,100239.00
2023-03-08T06:15:31.964Z,100233.81
2023-03-08T06:18:00.363Z,100239.25
2023-03-08T06:20:29.668Z,100243.69
2023-03-08T06:22:59.040Z,100247.66
2023-03-08T06:25:27.621Z,100241.28
2023-03-08T06:27:57.941Z,100236.13
2023-03-08T06:30:35.909Z,100255.25
2023-03-08T06:33:06.100Z,100270.88
2023-03-08T06:35:34.601Z,100262.38
2023-03-08T06:38:04.471Z,100252.72
2023-03-08T06:40:34.022Z,100249.69
2023-03-08T06:43:03.907Z,100269.56
2023-03-08T06:45:35.064Z,100268.25
2023-03-08T06:48:03.548Z,100266.34
2023-03-08T06:50:32.130Z,100272.03
2023-03-08T06:53:00.854Z,100255.63
2023-03-08T06:55:54.992Z,100281.03
2023-03-08T06:58:24.815Z,100262.59
2023-03-08T07:00:53.243Z,100251.75
2023-03-08T07:03:21.726Z,100248.13
2023-03-08T07:05:50.144Z,100228.03
2023-03-08T07:08:18.623Z,100251.75
2023-03-08T07:10:47.043Z,100267.13
2023-03-08T07:13:15.508Z,100260.38
2023-03-08T07:15:45.300Z,100243.72
2023-03-08T07:18:15.971Z,100240.56
2023-03-08T07:20:44.455Z,100221.56
2023-03-08T07:23:12.925Z,100251.13
2023-03-08T07:25:41.364Z,100254.72
2023-03-08T07:28:10.787Z,100267.91
2023-03-08T07:30:39.268Z,100265.34
2023-03-08T07:33:09.053Z,100272.69
2023-03-08T07:35:40.116Z,100259.28
2023-03-08T07:38:08.786Z,100268.81
2023-03-08T07:40:37.191Z,100277.06
2023-03-08T07:43:06.494Z,100284.78
2023-03-08T07:45:46.671Z,100289.72
2023-03-08T07:48:16.591Z,100303.69
2023-03-08T07:50:44.927Z,100304.53
2023-03-08T07:53:13.354Z,100295.22
2023-03-08T07:55:41.828Z,100289.53
2023-03-08T07:58:10.318Z,100298.19
2023-03-08T08:00:38.821Z,100307.16
2023-03-08T08:03:07.275Z,100314.28
2023-03-08T08:05:38.273Z,100302.66
2023-03-08T08:08:06.939Z,100306.88
2023-03-08T08:10:35.322Z,100304.06
2023-03-08T08:13:06.623Z,100293.47
2023-03-08T08:15:35.078Z,100294.88
2023-03-08T08:18:04.373Z,100287.69
2023-03-08T08:20:32.833Z,100300.31
2023-03-08T08:23:02.776Z,100292.13
2023-03-08T08:25:31.225Z,100281.56
2023-03-08T08:27:59.592Z,100283.28
2023-03-08T08:30:27.986Z,100285.72
2023-03-08T08:32:56.352Z,100280.41
2023-03-08T08:35:37.282Z,100284.34
2023-03-08T08:38:12.131Z,100284.75
2023-03-08T08:40:40.541Z,100294.72
2023-03-08T08:43:08.847Z,100309.06
2023-03-08T08:45:37.390Z,100303.19
2023-03-08T08:48:06.055Z,100307.41
2023-03-08T08:50:34.560Z,100304.44
2023-03-08T08:53:03.026Z,100298.28
2023-03-08T08:55:32.938Z,100289.06
2023-03-08T08:58:01.469Z,100300.97
2023-03-08T09:00:30.276Z,100311.22
2023-03-08T09:02:58.594Z,100314.44
2023-03-08T09:05:27.376Z,100311.38
2023-03-08T09:07:55.884Z,100309.13
2023-03-08T09:10:24.323Z,100304.09
2023-03-08T09:12:54.435Z,100306.06
2023-03-08T09:15:23.868Z,100299.63
2023-03-08T09:17:52.273Z,100293.44
2023-03-08T09:20:23.330Z,100301.84
2023-03-08T09:22:53.088Z,100307.47
2023-03-08T09:25:24.171Z,100309.72
2023-03-08T09:27:54.191Z,100306.06
2023-03-08T09:30:22.855Z,100306.91
2023-03-08T09:32:51.312Z,100310.00
2023-03-08T09:35:19.893Z,100313.63
2023-03-08T09:37:48.277Z,100304.22
2023-03-08T09:40:21.576Z,100287.25
2023-03-08T09:42:50.341Z,100273.78
2023-03-08T09:45:26.055Z,100268.47
2023-03-08T09:48:05.192Z,100274.03
2023-03-08T09:50:43.958Z,100272.66
2023-03-08T09:53:24.536Z,100299.25
2023-03-08T09:55:57.420Z,100247.00
2023-03-08T09:58:34.324Z,100298.78
2023-03-08T10:01:16.527Z,100277.78
2023-03-08T10:04:04.391Z,100294.25
2023-03-08T10:06:37.022Z,100286.50
2023-03-08T10:09:18.072Z,100266.91
2023-03-08T10:11:53.416Z,100308.91
2023-03-08T10:14:25.456Z,100298.22
2023-03-08T10:16:59.811Z,100303.19
2023-03-08T10:19:32.527Z,100298.38
2023-03-08T10:22:09.915Z,100303.59
2023-03-08T10:24:44.428Z,100309.16
2023-03-08T10:27:19.265Z,100310.84
2023-03-08T10:29:56.054Z,100320.94
2023-03-08T10:32:27.358Z,100316.44
2023-03-08T10:35:02.746Z,100322.13
2023-03-08T10:37:33.014Z,100314.38
2023-03-08T10:40:06.065Z,100323.47
2023-03-08T10:42:36.460Z,100318.53
2023-03-08T10:45:15.052Z,100298.59
2023-03-08T10:47:55.968Z,100325.44
2023-03-08T10:50:26.375Z,100321.78
2023-03-08T10:52:55.118Z,100307.44
2023-03-08T10:55:25.593Z,100297.16
2023-03-08T10:57:55.438Z,100300.59
2023-03-08T11:00:34.133Z,100308.19
2023-03-08T11:03:14.551Z,100299.41
2023-03-08T11:05:53.425Z,100294.16
2023-03-08T11:08:25.076Z,100305.53
2023-03-08T11:11:08.182Z,100312.53
2023-03-08T11:13:38.847Z,100318.03
2023-03-08T11:16:37.741Z,100315.56
2023-03-08T11:19:27.580Z,100316.38
2023-03-08T11:22:04.975Z,100308.88
2023-03-08T11:24:50.334Z,100304.72
2023-03-08T11:27:31.573Z,100297.16
2023-03-08T11:30:17.462Z,100273.00
2023-03-08T11:32:56.274Z,100309.22
2023-03-08T11:35:32.483Z,100310.59
2023-03-08T11:38:05.738Z,100317.47
2023-03-08T11:40:49.103Z,100318.84
2023-03-08T11:43:33.358Z,100313.34
2023-03-08T11:46:07.960Z,100304.47
2023-03-08T11:48:49.244Z,100297.50
2023-03-08T11:51:26.232Z,100301.72
2023-03-08T11:54:05.664Z,100311.09
2023-03-08T11:56:44.025Z,100305.13
2023-03-08T11:59:21.597Z,100298.09
2023-03-08T12:01:54.248Z,100298.72
2023-03-08T12:04:32.980Z,100297.09
2023-03-08T12:07:07.985Z,100300.31
2023-03-08T12:09:41.763Z,100271.72
2023-03-08T12:12:16.032Z,100265.28
2023-03-08T12:14:53.438Z,100265.13
2023-03-08T12:17:27.732Z,100272.78
2023-03-08T12:19:56.427Z,100278.81
2023-03-08T12:22:39.533Z,100264.28
2023-03-08T12:25:14.559Z,100265.81
2023-03-08T12:27:47.308Z,100261.78
2023-03-08T12:30:27.811Z,100259.78
2023-03-08T12:32:58.583Z,100250.91
2023-03-08T12:35:30.650Z,100264.28
2023-03-08T12:38:04.453Z,100271.16
2023-03-08T12:40:41.619Z,100170.59
2023-03-08T12:43:13.490Z,100223.84
2023-03-08T12:45:44.971Z,100099.69
2023-03-08T12:48:24.150Z,100242.28
2023-03-08T12:51:00.662Z,100238.47
2023-03-08T12:53:40.755Z,100241.31
2023-03-08T12:56:24.035Z,100237.63
2023-03-08T12:58:55.327Z,100237.78
2023-03-08T13:01:39.679Z,100230.28
2023-03-08T13:04:40.466Z,100223.75
2023-03-08T13:07:35.627Z,100229.47
2023-03-08T13:10:23.814Z,100228.16
2023-03-08T13:13:07.633Z,100216.63
2023-03-08T13:15:37.060Z,100188.00
2023-03-08T13:18:15.514Z,100205.06
2023-03-08T13:21:08.831Z,100213.44
2023-03-08T13:23:41.979Z,100214.09
2023-03-08T13:26:49.384Z,100221.47
2023-03-08T13:29:20.812Z,100222.66
2023-03-08T13:31:50.867Z,100234.69
2023-03-08T13:34:26.705Z,100233.69
2023-03-08T13:36:55.911Z,100198.41
2023-03-08T13:39:26.728Z,100226.53
2023-03-08T13:42:07.994Z,100224.19
2023-03-08T13:44:36.507Z,100231.72
2023-03-08T13:47:23.850Z,100227.53
2023-03-08T13:49:54.223Z,100237.41
2023-03-08T13:52:25.848Z,100220.47
2023-03-08T13:54:56.392Z,100251.28
2023-03-08T13:57:28.709Z,100240.94
2023-03-08T13:59:59.054Z,100237.75
2023-03-08T14:02:29.200Z,100218.16
2023-03-08T14:04:58.675Z,100194.41
2023-03-08T14:07:29.283Z,100206.09
2023-03-08T14:09:58.520Z,100199.75
2023-03-08T14:12:30.768Z,100201.75
2023-03-08T14:15:04.707Z,100196.41
2023-03-08T14:17:36.539Z,100082.25
2023-03-08T14:20:15.536Z,100183.28
2023-03-08T14:22:49.064Z,100186.44
2023-03-08T14:25:29.254Z,100189.59
2023-03-08T14:27:59.922Z,100188.94
2023-03-08T14:30:29.810Z,100196.28
2023-03-08T14:33:02.184Z,100186.03
2023-03-08T14:35:32.676Z,100145.31
2023-03-08T14:38:02.023Z,100169.34
2023-03-08T14:40:33.497Z,100173.19
2023-03-08T14:43:05.820Z,100168.47
2023-03-08T14:45:37.113Z,100175.66
2023-03-08T14:48:24.053Z,100179.19
2023-03-08T14:50:55.556Z,100175.84
2023-03-08T14:53:31.338Z,100178.84
2023-03-08T14:56:06.549Z,100168.94
2023-03-08T14:58:40.870Z,100164.91
2023-03-08T15:01:09.319Z,100159.16
2023-03-08T15:03:37.719Z,100153.44
2023-03-08T15:06:13.983Z,100130.28
2023-03-08T15:08:42.437Z,100136.63
2023-03-08T15:11:10.848Z,100158.94
2023-03-08T15:13:41.054Z,100150.22
2023-03-08T15:16:14.215Z,100148.53
2023-03-08T15:18:42.919Z,100154.41
2023-03-08T15:21:15.327Z,100154.03
2023-03-08T15:23:44.671Z,100154.88
2023-03-08T15:26:18.377Z,100154.22
2023-03-08T15:28:48.228Z,100168.13
2023-03-08T15:31:16.594Z,100182.25
2023-03-08T15:33:45.046Z,100178.88
2023-03-08T15:36:15.484Z,100163.78
2023-03-08T15:38:44.519Z,100154.09
2023-03-08T15:41:13.506Z,100145.28
2023-03-08T15:43:42.102Z,100134.91
2023-03-08T15:46:14.256Z,100120.00
2023-03-08T15:48:42.833Z,100116.66
2023-03-08T15:51:18.879Z,100108.66
2023-03-08T15:53:49.208Z,100127.19
2023-03-08T15:56:18.351Z,100108.69
2023-03-08T15:58:46.676Z,99994.94
2023-03-08T16:01:16.558Z,100074.03
2023-03-08T16:03:44.989Z,100090.13
2023-03-08T16:06:15.157Z,100102.41
2023-03-08T16:08:43.658Z,100100.09
2023-03-08T16:11:13.495Z,100120.56
2023-03-08T16:13:42.077Z,100131.59
2023-03-08T16:16:11.304Z,100133.56
2023-03-08T16:18:41.611Z,100143.13
2023-03-08T16:21:10.706Z,100138.28
2023-03-08T16:23:41.767Z,100160.41
2023-03-08T16:26:16.343Z,100123.72
2023-03-08T16:28:47.558Z,100130.22
2023-03-08T16:31:17.582Z,100134.41
2023-03-08T16:33:47.409Z,100140.97
2023-03-08T16:36:16.357Z,100147.34
2023-03-08T16:38:44.725Z,100150.22
2023-03-08T16:41:14.281Z,100147.69
2023-03-08T16:43:47.337Z,100104.69
2023-03-08T16:46:19.418Z,100132.97
2023-03-08T16:48:50.606Z,100101.72
2023-03-08T16:51:21.078Z,100126.31
2023-03-08T16:53:50.305Z,100125.47
2023-03-08T16:56:19.612Z,100121.75
2023-03-08T16:58:48.106Z,100118.59
2023-03-08T17:01:19.381Z,100032.06
2023-03-08T17:03:49.515Z,100119.66
2023-03-08T17:06:19.964Z,100123.03
2023-03-08T17:08:48.840Z,100108.66
2023-03-08T17:11:17.710Z,100099.31
2023-03-08T17:13:51.076Z,100104.53
2023-03-08T17:16:20.556Z,100091.34
2023-03-08T17:18:51.676Z,100090.34
2023-03-08T17:21:21.368Z,100114.72
2023-03-08T17:23:50.415Z,100099.84
2023-03-08T17:26:20.639Z,100115.78
2023-03-08T17:28:51.088Z,100109.94
2023-03-08T17:31:21.440Z,100111.28
2023-03-08T17:33:51.670Z,100094.22
2023-03-08T17:36:20.859Z,100035.59
2023-03-08T17:38:49.389Z,100020.22
2023-03-08T17:41:18.251Z,100059.94
2023-03-08T17:43:46.717Z,100105.84
2023-03-08T17:46:17.277Z,100111.34
2023-03-08T17:48:46.409Z,100139.81
2023-03-08T17:51:19.256Z,100132.13
2023-03-08T17:53:49.058Z,100127.09
2023-03-08T17:56:20.171Z,100112.88
2023-03-08T17:58:49.164Z,100099.81
2023-03-08T18:01:20.417Z,100090.28
2023-03-08T18:03:49.949Z,99982.56
2023-03-08T18:06:25.146Z,99916.75
2023-03-08T18:08:54.098Z,99941.34
2023-03-08T18:11:23.156Z,100060.28
2023-03-08T18:13:51.705Z,100084.84
2023-03-08T18:16:21.152Z,99945.56
2023-03-08T18:18:50.391Z,99862.19
2023-03-08T18:21:21.109Z,100141.84
2023-03-08T18:23:49.804Z,99957.81
2023-03-08T18:26:19.048Z,100160.84
2023-03-08T18:28:48.142Z,99968.53
2023-03-08T18:31:19.086Z,99986.41
2023-03-08T18:33:47.637Z,100149.69
2023-03-08T18:36:16.426Z,100139.09
2023-03-08T18:38:46.240Z,100122.84
2023-03-08T18:41:16.886Z,99981.28
2023-03-08T18:43:46.967Z,99978.34
2023-03-08T18:46:16.064Z,99988.63
2023-03-08T18:48:48.252Z,100181.22
2023-03-08T18:51:16.745Z,100016.50
2023-03-08T18:53:46.516Z,100186.59
2023-03-08T18:56:14.942Z,99989.31
2023-03-08T18:58:43.265Z,99971.13
2023-03-08T19:01:13.220Z,99944.03
2023-03-08T19:03:42.614Z,99946.06
2023-03-08T19:06:12.691Z,99973.63
2023-03-08T19:08:42.569Z,99941.41
2023-03-08T19:11:13.706Z,99956.56
2023-03-08T19:13:44.163Z,100164.44
2023-03-08T19:16:21.332Z,100150.41
2023-03-08T19:18:51.423Z,100004.41
2023-03-08T19:21:21.586Z,99968.66
2023-03-08T19:23:50.491Z,100028.25
2023-03-08T19:26:41.422Z,100148.13
2023-03-08T19:29:12.810Z,100173.72
2023-03-08T19:31:44.185Z,99989.47
2023-03-08T19:34:14.501Z,100172.59
2023-03-08T19:36:43.305Z,100159.84
2023-03-08T19:39:15.907Z,99965.50
2023-03-08T19:41:45.868Z,99953.75
2023-03-08T19:44:14.436Z,100165.06
2023-03-08T19:46:43.210Z,100176.34
2023-03-08T19:49:15.196Z,100180.06
2023-03-08T19:51:45.866Z,100175.28
2023-03-08T19:54:15.706Z,100172.31
2023-03-08T19:56:45.749Z,100165.19
2023-03-08T19:59:14.898Z,100159.72
2023-03-08T20:01:44.866Z,100151.56
2023-03-08T20:04:14.142Z,100152.81
2023-03-08T20:06:46.318Z,100162.53
2023-03-08T20:09:21.777Z,100134.28
2023-03-08T20:11:53.515Z,100161.78
2023-03-08T20:14:22.334Z,100161.09
2023-03-08T20:16:51.213Z,100178.78
2023-03-08T20:19:19.879Z,100168.94
2023-03-08T20:21:48.268Z,100183.41
2023-03-08T20:24:18.433Z,100185.66
2023-03-08T20:26:47.627Z,100188.78
2023-03-08T20:29:17.759Z,100175.25
2023-03-08T20:31:48.285Z,100189.56
2023-03-08T20:34:17.139Z,100194.69
2023-03-08T20:36:45.562Z,100198.91
2023-03-08T20:39:13.965Z,100201.72
2023-03-08T20:41:42.254Z,100203.66
2023-03-08T20:44:12.157Z,100196.22
2023-03-08T20:46:42.011Z,100185.25
2023-03-08T20:49:12.599Z,100188.47
2023-03-08T20:51:41.101Z,100177.44
2023-03-08T20:54:10.131Z,100186.28
2023-03-08T20:56:38.474Z,100179.28
2023-03-08T20:59:06.911Z,100175.09
2023-03-08T21:01:35.540Z,100174.81
2023-03-08T21:04:06.463Z,100175.25
2023-03-08T21:06:34.809Z,100186.94
2023-03-08T21:09:03.170Z,100186.38
2023-03-08T21:11:32.895Z,100187.28
2023-03-08T21:14:01.443Z,100197.06
2023-03-08T21:16:31.337Z,100197.22
2023-03-08T21:19:01.714Z,100199.47
2023-03-08T21:21:34.512Z,100203.38
2023-03-08T21:24:04.876Z,100186.44
2023-03-08T21:26:34.156Z,100196.50
2023-03-08T21:29:04.978Z,100166.84
2023-03-08T21:31:34.549Z,100220.75
2023-03-08T21:34:03.962Z,100177.50
2023-03-08T21:36:34.320Z,100236.31
2023-03-08T21:39:03.534Z,100245.53
2023-03-08T21:41:33.719Z,100259.81
2023-03-08T21:44:03.932Z,100266.13
2023-03-08T21:46:32.827Z,100261.78
2023-03-08T21:49:07.958Z,100239.38
2023-03-08T21:51:38.583Z,100256.88
2023-03-08T21:54:07.341Z,100258.56
2023-03-08T21:56:36.077Z,100254.06
2023-03-08T21:59:04.835Z,100265.03
2023-03-08T22:01:33.431Z,100252.69
2023-03-08T22:04:03.750Z,100251.72
2023-03-08T22:06:32.555Z,100256.47
2023-03-08T22:09:02.640Z,100259.56
2023-03-08T22:11:31.181Z,100268.22
2023-03-08T22:14:01.510Z,100268.22
2023-03-08T22:16:31.157Z,100263.16
2023-03-08T22:19:01.920Z,100272.25
2023-03-08T22:21:30.393Z,100292.44
2023-03-08T22:24:00.399Z,100293.66
2023-03-08T22:26:32.030Z,100277.00
2023-03-08T22:29:00.780Z,100312.72
2023-03-08T22:31:30.829Z,100322.09
2023-03-08T22:33:59.572Z,100342.00
2023-03-08T22:36:28.058Z,100329.41
2023-03-08T22:38:56.568Z,100317.22
2023-03-08T22:41:31.458Z,100315.25
2023-03-08T22:44:02.876Z,100316.97
2023-03-08T22:46:31.560Z,100321.56
2023-03-08T22:49:04.773Z,100339.66
2023-03-08T22:51:34.615Z,100328.75
2023-03-08T22:54:05.804Z,100319.22
2023-03-08T22:56:36.272Z,100288.38
2023-03-08T22:59:05.096Z,100308.84
2023-03-08T23:01:35.253Z,100308.59
2023-03-08T23:04:06.114Z,100339.41
2023-03-08T23:06:35.473Z,100330.56
2023-03-08T23:09:07.377Z,100365.78
2023-03-08T23:11:38.605Z,100370.97
2023-03-08T23:14:08.274Z,100383.44
2023-03-08T23:16:37.522Z,100400.53
2023-03-08T23:19:06.068Z,100403.63
2023-03-08T23:21:37.904Z,100385.81
2023-03-08T23:24:07.181Z,100378.38
2023-03-08T23:26:37.493Z,100349.91
2023-03-08T23:29:07.039Z,100354.00
2023-03-08T23:31:37.838Z,100349.66
2023-03-08T23:34:07.368Z,100345.31
2023-03-08T23:36:36.138Z,100339.97
2023-03-08T23:39:05.032Z,100326.66
2023-03-08T23:41:34.109Z,100338.28
2023-03-08T23:44:04.544Z,100342.22
2023-03-08T23:46:33.558Z,100333.25
2023-03-08T23:49:02.337Z,100311.50
2023-03-08T23:51:32.242Z,100324.81
2023-03-08T23:54:02.244Z,100317.41
2023-03-08T23:56:37.876Z,100310.81
2023-03-08T23:59:11.867Z,100281.66
